createdAt,value
2018-01-20T00:00:53.613Z,0
2018-01-20T00:01:54.039Z,0
2018-01-20T00:02:54.032Z,0
2018-01-20T00:03:54.069Z,0
2018-01-20T00:05:23.530Z,0
2018-01-20T00:05:53.847Z,0
2018-01-20T00:07:08.747Z,0
2018-01-20T00:07:53.862Z,0
2018-01-20T00:08:54.159Z,0
2018-01-20T00:09:54.192Z,0
2018-01-20T00:10:53.764Z,0
2018-01-20T00:11:54.020Z,0
2018-01-20T00:12:53.930Z,0
2018-01-20T00:13:53.450Z,0
2018-01-20T00:15:08.619Z,0
2018-01-20T00:15:53.809Z,0
2018-01-20T00:16:53.497Z,0
2018-01-20T00:17:53.975Z,0
2018-01-20T00:18:54.261Z,0
2018-01-20T00:19:54.305Z,0
2018-01-20T00:20:54.371Z,0
2018-01-20T00:21:54.328Z,0
2018-01-20T00:22:54.088Z,0
2018-01-20T00:23:54.367Z,0
2018-01-20T00:25:09.043Z,0
2018-01-20T00:25:54.417Z,0
2018-01-20T00:27:09.039Z,0
2018-01-20T00:27:54.147Z,0
2018-01-20T00:28:53.664Z,0
2018-01-20T00:30:09.121Z,0
2018-01-20T00:30:54.320Z,0
2018-01-20T00:31:54.192Z,0
2018-01-20T00:32:54.548Z,0
2018-01-20T00:33:54.499Z,0
2018-01-20T00:35:54.252Z,0
2018-01-20T00:37:54.557Z,0
2018-01-20T00:38:54.545Z,0
2018-01-20T00:39:54.547Z,0
2018-01-20T00:40:54.573Z,0
2018-01-20T00:41:54.574Z,0
2018-01-20T00:42:54.395Z,0
2018-01-20T00:43:54.146Z,0
2018-01-20T00:44:54.391Z,0
2018-01-20T00:45:54.157Z,0
2018-01-20T00:46:54.689Z,0
2018-01-20T00:47:54.278Z,0
2018-01-20T00:48:54.448Z,0
2018-01-20T00:50:09.390Z,0
2018-01-20T00:50:53.958Z,0
2018-01-20T00:51:54.734Z,0
2018-01-20T00:52:54.732Z,0
2018-01-20T00:53:54.649Z,0
2018-01-20T00:54:54.779Z,0
2018-01-20T00:55:54.792Z,0
2018-01-20T00:56:54.583Z,0
2018-01-20T00:59:09.497Z,0
2018-01-20T00:59:54.646Z,0
2018-01-20T01:01:09.280Z,0
2018-01-20T01:02:24.226Z,0
2018-01-20T01:02:54.696Z,0
2018-01-20T01:03:54.883Z,0
2018-01-20T01:05:09.598Z,0
2018-01-20T01:05:54.685Z,0
2018-01-20T01:06:54.481Z,0
2018-01-20T01:07:54.964Z,0
2018-01-20T01:08:55.007Z,0
2018-01-20T01:09:54.834Z,0
2018-01-20T01:10:55.034Z,0
2018-01-20T01:11:55.068Z,0
2018-01-20T01:12:54.765Z,0
2018-01-20T01:13:55.074Z,0
2018-01-20T01:14:54.815Z,0
2018-01-20T01:15:55.134Z,0
2018-01-20T01:16:55.075Z,0
2018-01-20T01:18:09.555Z,0
2018-01-20T01:18:55.152Z,0
2018-01-20T01:19:54.930Z,0
2018-01-20T01:20:55.267Z,0
2018-01-20T01:21:55.070Z,0
2018-01-20T01:22:55.207Z,0
2018-01-20T01:23:55.196Z,0
2018-01-20T01:24:55.208Z,0
2018-01-20T01:25:54.984Z,0
2018-01-20T01:26:55.276Z,0
2018-01-20T01:27:55.039Z,0
2018-01-20T01:29:09.695Z,0
2018-01-20T01:29:55.052Z,0
2018-01-20T01:30:55.064Z,0
2018-01-20T01:31:55.322Z,0
2018-01-20T01:32:54.841Z,0
2018-01-20T01:34:24.677Z,0
2018-01-20T01:34:55.109Z,0
2018-01-20T01:35:55.012Z,0
2018-01-20T01:36:55.419Z,0
2018-01-20T01:37:55.133Z,0
2018-01-20T01:39:09.605Z,0
2018-01-20T01:39:55.193Z,0
2018-01-20T01:40:55.038Z,0
2018-01-20T01:43:10.171Z,0
2018-01-20T01:45:24.599Z,0
2018-01-20T01:45:55.481Z,0
2018-01-20T01:46:55.255Z,0
2018-01-20T01:47:55.014Z,0
2018-01-20T01:48:55.554Z,0
2018-01-20T01:50:24.658Z,0
2018-01-20T01:52:10.324Z,0
2018-01-20T01:52:55.379Z,0
2018-01-20T01:53:55.489Z,0
2018-01-20T01:54:55.373Z,0
2018-01-20T01:55:55.129Z,0
2018-01-20T01:57:10.346Z,0
2018-01-20T01:57:55.442Z,0
2018-01-20T01:58:55.711Z,0
2018-01-20T01:59:55.705Z,0
2018-01-20T02:00:55.698Z,0
2018-01-20T02:02:10.416Z,0
2018-01-20T02:02:55.255Z,0
2018-01-20T02:03:55.096Z,0
2018-01-20T02:05:24.873Z,0
2018-01-20T02:05:55.544Z,0
2018-01-20T02:06:55.845Z,0
2018-01-20T02:07:55.567Z,0
2018-01-20T02:09:10.253Z,0
2018-01-20T02:09:55.579Z,0
2018-01-20T02:11:10.272Z,0
2018-01-20T02:11:55.627Z,0
2018-01-20T02:12:55.641Z,0
2018-01-20T02:13:55.389Z,0
2018-01-20T02:15:10.386Z,0
2018-01-20T02:15:55.288Z,0
2018-01-20T02:17:10.378Z,0
2018-01-20T02:18:25.329Z,0
2018-01-20T02:18:56.006Z,0
2018-01-20T02:19:55.247Z,0
2018-01-20T02:21:10.739Z,0
2018-01-20T02:22:10.699Z,0
2018-01-20T02:22:56.064Z,0
2018-01-20T02:23:56.029Z,0
2018-01-20T02:24:56.101Z,0
2018-01-20T02:25:56.076Z,0
2018-01-20T02:26:55.948Z,0
2018-01-20T02:27:56.110Z,0
2018-01-20T02:29:25.214Z,0
2018-01-20T02:29:55.919Z,0
2018-01-20T02:31:10.563Z,0
2018-01-20T02:31:56.025Z,0
2018-01-20T02:32:55.682Z,0
2018-01-20T02:33:55.921Z,0
2018-01-20T02:34:56.208Z,0
2018-01-20T02:35:55.991Z,0
2018-01-20T02:37:25.573Z,0
2018-01-20T02:37:56.137Z,0
2018-01-20T02:38:56.299Z,0
2018-01-20T02:39:56.032Z,0
2018-01-20T02:40:56.019Z,0
2018-01-20T02:41:56.034Z,0
2018-01-20T02:43:10.762Z,0
2018-01-20T02:43:56.081Z,0
2018-01-20T02:44:56.115Z,0
2018-01-20T02:45:56.145Z,0
2018-01-20T02:47:11.088Z,0
2018-01-20T02:47:56.414Z,0
2018-01-20T02:49:11.191Z,0
2018-01-20T02:49:56.431Z,0
2018-01-20T02:50:56.472Z,0
2018-01-20T02:51:56.437Z,0
2018-01-20T02:53:10.910Z,0
2018-01-20T02:53:56.245Z,0
2018-01-20T02:54:56.537Z,0
2018-01-20T02:56:11.199Z,0
2018-01-20T02:56:56.252Z,0
2018-01-20T02:57:56.036Z,0
2018-01-20T02:59:56.322Z,0
2018-01-20T03:01:56.630Z,0
2018-01-20T03:03:11.186Z,0
2018-01-20T03:03:56.655Z,0
2018-01-20T03:05:11.342Z,0
2018-01-20T03:05:56.631Z,0
2018-01-20T03:06:56.177Z,0
2018-01-20T03:08:11.085Z,0
2018-01-20T03:09:11.138Z,0
2018-01-20T03:09:56.458Z,0
2018-01-20T03:10:56.598Z,0
2018-01-20T03:11:56.617Z,0
2018-01-20T03:12:56.616Z,0
2018-01-20T03:13:56.257Z,0
2018-01-20T03:14:56.020Z,0
2018-01-20T03:15:56.539Z,0
2018-01-20T03:16:56.552Z,0
2018-01-20T03:17:56.570Z,0
2018-01-20T03:18:56.583Z,0
2018-01-20T03:19:56.724Z,0
2018-01-20T03:21:11.415Z,0
2018-01-20T03:21:56.661Z,0
2018-01-20T03:22:56.678Z,0
2018-01-20T03:23:56.658Z,0
2018-01-20T03:25:11.616Z,0
2018-01-20T03:26:56.461Z,0
2018-01-20T03:27:57.042Z,0
2018-01-20T03:28:56.488Z,0
2018-01-20T03:29:56.988Z,0
2018-01-20T03:30:57.018Z,0
2018-01-20T03:32:56.614Z,0
2018-01-20T03:33:56.803Z,0
2018-01-20T03:34:57.202Z,0
2018-01-20T03:35:56.835Z,0
2018-01-20T03:37:11.254Z,0
2018-01-20T03:37:56.871Z,0
2018-01-20T03:38:57.141Z,0
2018-01-20T03:40:11.583Z,0
2018-01-20T03:41:56.898Z,0
2018-01-20T03:42:56.656Z,0
2018-01-20T03:43:56.959Z,0
2018-01-20T03:44:56.967Z,0
2018-01-20T03:46:11.675Z,0
2018-01-20T03:46:57.272Z,0
2018-01-20T03:47:56.764Z,0
2018-01-20T03:48:57.021Z,0
2018-01-20T03:49:57.009Z,0
2018-01-20T03:50:57.100Z,0
2018-01-20T03:51:56.815Z,0
2018-01-20T03:52:57.325Z,0
2018-01-20T03:53:57.099Z,0
2018-01-20T03:55:12.031Z,0
2018-01-20T03:55:57.111Z,0
2018-01-20T03:56:56.856Z,0
2018-01-20T03:57:57.172Z,0
2018-01-20T03:58:57.421Z,0
2018-01-20T03:59:56.923Z,0
2018-01-20T04:00:57.418Z,0
2018-01-20T04:01:56.716Z,0
2018-01-20T04:02:57.459Z,0
2018-01-20T04:04:12.276Z,0
2018-01-20T04:04:56.993Z,0
2018-01-20T04:05:56.768Z,0
2018-01-20T04:08:11.965Z,0
2018-01-20T04:09:12.092Z,0
2018-01-20T04:09:57.042Z,0
2018-01-20T04:10:57.319Z,0
2018-01-20T04:12:12.303Z,0
2018-01-20T04:12:57.364Z,0
2018-01-20T04:14:12.403Z,0
2018-01-20T04:14:57.134Z,0
2018-01-20T04:15:57.401Z,0
2018-01-20T04:17:11.583Z,0
2018-01-20T04:17:57.197Z,0
2018-01-20T04:18:57.671Z,0
2018-01-20T04:19:57.217Z,0
2018-01-20T04:20:57.206Z,0
2018-01-20T04:21:57.734Z,0
2018-01-20T04:22:57.500Z,0
2018-01-20T04:23:57.773Z,0
2018-01-20T04:24:57.913Z,0
2018-01-20T04:26:57.062Z,0
2018-01-20T04:28:11.997Z,0
2018-01-20T04:29:12.244Z,0
2018-01-20T04:29:57.957Z,0
2018-01-20T04:30:57.841Z,0
2018-01-20T04:31:57.899Z,0
2018-01-20T04:33:12.576Z,0
2018-01-20T04:33:57.896Z,0
2018-01-20T04:34:57.952Z,0
2018-01-20T04:35:57.931Z,0
2018-01-20T04:36:57.685Z,0
2018-01-20T04:38:12.641Z,0
2018-01-20T04:38:57.713Z,0
2018-01-20T04:39:57.985Z,0
2018-01-20T04:40:58.052Z,0
2018-01-20T04:41:57.882Z,0
2018-01-20T04:42:57.777Z,0
2018-01-20T04:44:12.221Z,0
2018-01-20T04:44:57.585Z,0
2018-01-20T04:46:57.831Z,0
2018-01-20T04:47:58.233Z,0
2018-01-20T04:48:58.158Z,0
2018-01-20T04:49:57.390Z,0
2018-01-20T04:50:57.951Z,0
2018-01-20T04:52:12.589Z,0
2018-01-20T04:53:12.598Z,0
2018-01-20T04:55:12.882Z,0
2018-01-20T04:55:58.227Z,0
2018-01-20T04:56:57.744Z,0
2018-01-20T04:57:58.223Z,0
2018-01-20T04:58:57.753Z,0
2018-01-20T05:00:12.954Z,0
2018-01-20T05:01:12.962Z,0
2018-01-20T05:01:58.045Z,0
2018-01-20T05:02:58.155Z,0
2018-01-20T05:05:13.022Z,0
2018-01-20T05:05:58.119Z,0
2018-01-20T05:06:58.112Z,0
2018-01-20T05:08:12.857Z,0
2018-01-20T05:08:58.190Z,0
2018-01-20T05:09:58.268Z,0
2018-01-20T05:11:13.122Z,0
2018-01-20T05:11:58.459Z,0
2018-01-20T05:12:58.210Z,0
2018-01-20T05:14:12.887Z,0
2018-01-20T05:15:13.200Z,0
2018-01-20T05:15:58.260Z,0
2018-01-20T05:16:58.033Z,0
2018-01-20T05:17:58.570Z,0
2018-01-20T05:19:13.217Z,0
2018-01-20T05:20:13.267Z,0
2018-01-20T05:20:58.333Z,0
2018-01-20T05:21:58.562Z,0
2018-01-20T05:22:58.638Z,0
2018-01-20T05:23:58.366Z,0
2018-01-20T05:25:13.315Z,0
2018-01-20T05:25:58.672Z,0
2018-01-20T05:26:58.410Z,0
2018-01-20T05:30:13.363Z,0
2018-01-20T05:30:58.687Z,0
2018-01-20T05:31:58.770Z,0
2018-01-20T05:32:58.744Z,0
2018-01-20T05:33:58.772Z,0
2018-01-20T05:34:58.532Z,0
2018-01-20T05:35:58.818Z,0
2018-01-20T05:36:58.810Z,0
2018-01-20T05:39:12.990Z,0
2018-01-20T05:40:12.755Z,0
2018-01-20T05:40:58.634Z,0
2018-01-20T05:41:58.662Z,0
2018-01-20T05:42:58.773Z,0
2018-01-20T05:43:58.678Z,0
2018-01-20T05:44:58.982Z,0
2018-01-20T05:46:13.605Z,0
2018-01-20T05:47:13.386Z,0
2018-01-20T05:47:58.953Z,0
2018-01-20T05:48:59.024Z,0
2018-01-20T05:51:59.028Z,0
2018-01-20T05:53:13.455Z,0
2018-01-20T05:53:58.515Z,0
2018-01-20T05:54:59.034Z,0
2018-01-20T05:55:58.835Z,0
2018-01-20T05:56:59.112Z,0
2018-01-20T05:57:58.847Z,0
2018-01-20T05:59:13.808Z,0
2018-01-20T05:59:59.149Z,0
2018-01-20T06:01:28.479Z,0
2018-01-20T06:01:58.155Z,0
2018-01-20T06:03:13.872Z,0
2018-01-20T06:03:59.172Z,0
2018-01-20T06:04:59.273Z,0
2018-01-20T06:05:59.226Z,0
2018-01-20T06:07:13.919Z,0
2018-01-20T06:08:59.019Z,0
2018-01-20T06:10:13.947Z,0
2018-01-20T06:10:59.295Z,0
2018-01-20T06:12:14.038Z,0
2018-01-20T06:12:59.072Z,0
2018-01-20T06:13:59.076Z,0
2018-01-20T06:14:59.152Z,0
2018-01-20T06:15:59.453Z,0
2018-01-20T06:16:59.344Z,0
2018-01-20T06:18:14.059Z,0
2018-01-20T06:19:14.062Z,0
2018-01-20T06:19:59.183Z,0
2018-01-20T06:20:59.426Z,0
2018-01-20T06:21:58.679Z,0
2018-01-20T06:23:59.242Z,0
2018-01-20T06:24:59.481Z,0
2018-01-20T06:25:59.468Z,0
2018-01-20T06:26:59.517Z,0
2018-01-20T06:27:59.626Z,0
2018-01-20T06:28:59.269Z,0
2018-01-20T06:30:13.994Z,0
2018-01-20T06:30:59.686Z,0
2018-01-20T06:31:59.102Z,0
2018-01-20T06:33:14.269Z,0
2018-01-20T06:33:59.127Z,0
2018-01-20T06:35:14.348Z,0
2018-01-20T06:35:59.412Z,0
2018-01-20T06:36:59.661Z,0
2018-01-20T06:37:59.437Z,0
2018-01-20T06:39:13.593Z,0
2018-01-20T06:39:59.463Z,0
2018-01-20T06:40:59.201Z,0
2018-01-20T06:41:59.724Z,0
2018-01-20T06:42:59.466Z,0
2018-01-20T06:43:59.263Z,0
2018-01-20T06:45:59.559Z,0
2018-01-20T06:46:59.307Z,0
2018-01-20T06:47:59.788Z,0
2018-01-20T06:48:59.591Z,0
2018-01-20T06:50:14.347Z,0
2018-01-20T06:50:59.853Z,0
2018-01-20T06:52:14.685Z,0
2018-01-20T06:52:59.606Z,0
2018-01-20T06:53:59.659Z,0
2018-01-20T06:54:59.701Z,0
2018-01-20T06:56:14.587Z,0
2018-01-20T06:56:59.931Z,0
2018-01-20T06:57:59.949Z,0
2018-01-20T06:58:59.771Z,0
2018-01-20T06:59:59.966Z,0
2018-01-20T07:00:59.518Z,0
2018-01-20T07:01:59.507Z,0
2018-01-20T07:02:59.530Z,0
2018-01-20T07:04:14.500Z,0
2018-01-20T07:05:59.794Z,0
2018-01-20T07:06:59.872Z,0
2018-01-20T07:07:59.823Z,0
2018-01-20T07:08:59.618Z,0
2018-01-20T07:09:59.982Z,0
2018-01-20T07:10:59.957Z,0
2018-01-20T07:11:59.666Z,0
2018-01-20T07:12:59.666Z,0
2018-01-20T07:14:14.585Z,0
2018-01-20T07:14:59.723Z,0
2018-01-20T07:16:14.932Z,0
2018-01-20T07:17:00.210Z,0
2018-01-20T07:18:00.261Z,0
2018-01-20T07:19:00.021Z,0
2018-01-20T07:20:00.284Z,0
2018-01-20T07:21:00.297Z,0
2018-01-20T07:22:14.747Z,0
2018-01-20T07:23:00.318Z,0
2018-01-20T07:24:00.325Z,0
2018-01-20T07:26:00.106Z,0
2018-01-20T07:27:00.348Z,0
2018-01-20T07:28:00.396Z,0
2018-01-20T07:29:15.073Z,0
2018-01-20T07:30:00.141Z,0
2018-01-20T07:31:14.985Z,0
2018-01-20T07:32:00.213Z,5
2018-01-20T07:33:00.212Z,5
2018-01-20T07:33:59.973Z,5
2018-01-20T07:35:14.904Z,0
2018-01-20T07:36:00.109Z,0
2018-01-20T07:37:15.199Z,0
2018-01-20T07:38:14.708Z,0
2018-01-20T07:39:00.394Z,0
2018-01-20T07:40:00.551Z,5
2018-01-20T07:41:00.572Z,0
2018-01-20T07:42:00.312Z,0
2018-01-20T07:43:00.502Z,0
2018-01-20T07:44:00.471Z,0
2018-01-20T07:45:00.647Z,0
2018-01-20T07:46:15.327Z,5
2018-01-20T07:47:00.724Z,5
2018-01-20T07:48:00.152Z,5
2018-01-20T07:50:15.115Z,5
2018-01-20T07:51:15.403Z,5
2018-01-20T07:52:00.711Z,5
2018-01-20T07:53:00.791Z,5
2018-01-20T07:54:15.440Z,5
2018-01-20T07:55:00.818Z,5
2018-01-20T07:56:00.809Z,5
2018-01-20T07:57:00.781Z,5
2018-01-20T07:58:00.786Z,5
2018-01-20T07:59:00.613Z,5
2018-01-20T08:00:00.852Z,5
2018-01-20T08:01:00.850Z,5
2018-01-20T08:02:00.966Z,10
2018-01-20T08:03:00.914Z,10
2018-01-20T08:04:00.960Z,10
2018-01-20T08:05:15.338Z,10
2018-01-20T08:06:00.709Z,10
2018-01-20T08:07:00.946Z,10
2018-01-20T08:08:01.000Z,15
2018-01-20T08:09:00.719Z,15
2018-01-20T08:10:15.663Z,15
2018-01-20T08:11:01.020Z,15
2018-01-20T08:13:01.035Z,20
2018-01-20T08:14:00.814Z,25
2018-01-20T08:15:00.807Z,25
2018-01-20T08:16:01.065Z,30
2018-01-20T08:17:01.083Z,30
2018-01-20T08:18:00.633Z,30
2018-01-20T08:19:01.121Z,35
2018-01-20T08:20:15.564Z,35
2018-01-20T08:21:01.016Z,35
2018-01-20T08:23:15.952Z,35
2018-01-20T08:24:01.207Z,35
2018-01-20T08:25:15.645Z,35
2018-01-20T08:26:01.205Z,35
2018-01-20T08:27:01.219Z,35
2018-01-20T08:28:01.492Z,40
2018-01-20T08:29:01.134Z,40
2018-01-20T08:30:01.316Z,40
2018-01-20T08:31:01.054Z,40
2018-01-20T08:32:01.037Z,45
2018-01-20T08:33:01.210Z,45
2018-01-20T08:34:16.113Z,45
2018-01-20T08:35:16.020Z,50
2018-01-20T08:36:01.352Z,45
2018-01-20T08:37:01.380Z,45
2018-01-20T08:38:01.421Z,45
2018-01-20T08:39:16.206Z,45
2018-01-20T08:40:01.226Z,45
2018-01-20T08:41:01.464Z,45
2018-01-20T08:42:01.474Z,40
2018-01-20T08:43:00.964Z,40
2018-01-20T08:44:01.237Z,40
2018-01-20T08:45:01.278Z,40
2018-01-20T08:46:01.280Z,40
2018-01-20T08:47:01.308Z,40
2018-01-20T08:48:01.314Z,40
2018-01-20T08:49:01.047Z,40
2018-01-20T08:50:16.277Z,40
2018-01-20T08:51:01.617Z,40
2018-01-20T08:52:01.348Z,40
2018-01-20T08:53:01.379Z,40
2018-01-20T08:54:01.363Z,40
2018-01-20T08:55:01.638Z,40
2018-01-20T08:56:16.340Z,45
2018-01-20T08:57:15.873Z,45
2018-01-20T08:58:01.746Z,45
2018-01-20T08:59:01.764Z,45
2018-01-20T09:00:01.450Z,45
2018-01-20T09:01:01.760Z,45
2018-01-20T09:02:01.807Z,45
2018-01-20T09:03:01.772Z,45
2018-01-20T09:04:01.755Z,45
2018-01-20T09:05:01.648Z,45
2018-01-20T09:06:01.588Z,50
2018-01-20T09:07:16.516Z,50
2018-01-20T09:08:01.847Z,50
2018-01-20T09:09:01.883Z,50
2018-01-20T09:10:01.719Z,50
2018-01-20T09:11:01.402Z,50
2018-01-20T09:12:01.964Z,50
2018-01-20T09:13:16.375Z,55
2018-01-20T09:15:01.717Z,55
2018-01-20T09:16:01.694Z,55
2018-01-20T09:17:01.743Z,55
2018-01-20T09:18:01.977Z,60
2018-01-20T09:19:01.775Z,55
2018-01-20T09:20:01.808Z,60
2018-01-20T09:21:02.067Z,60
2018-01-20T09:22:02.217Z,60
2018-01-20T09:23:02.056Z,55
2018-01-20T09:24:02.075Z,60
2018-01-20T09:25:01.883Z,65
2018-01-20T09:26:16.828Z,70
2018-01-20T09:27:02.181Z,65
2018-01-20T09:28:01.926Z,60
2018-01-20T09:29:16.621Z,55
2018-01-20T09:30:16.364Z,55
2018-01-20T09:31:02.187Z,55
2018-01-20T09:32:02.205Z,55
2018-01-20T09:33:01.969Z,60
2018-01-20T09:35:02.296Z,60
2018-01-20T09:36:02.038Z,55
2018-01-20T09:37:02.301Z,55
2018-01-20T09:38:16.726Z,60
2018-01-20T09:39:17.023Z,60
2018-01-20T09:40:16.765Z,60
2018-01-20T09:41:02.107Z,60
2018-01-20T09:42:02.341Z,65
2018-01-20T09:43:16.800Z,55
2018-01-20T09:44:02.409Z,55
2018-01-20T09:46:02.405Z,50
2018-01-20T09:47:01.947Z,50
2018-01-20T09:48:02.438Z,50
2018-01-20T09:49:02.510Z,50
2018-01-20T09:50:17.166Z,50
2018-01-20T09:51:01.748Z,50
2018-01-20T09:52:02.033Z,50
2018-01-20T09:53:02.544Z,50
2018-01-20T09:54:02.277Z,50
2018-01-20T09:55:02.581Z,50
2018-01-20T09:57:02.724Z,45
2018-01-20T09:58:17.298Z,40
2018-01-20T09:59:17.029Z,35
2018-01-20T10:00:17.442Z,30
2018-01-20T10:01:02.155Z,35
2018-01-20T10:02:17.101Z,35
2018-01-20T10:03:02.441Z,40
2018-01-20T10:04:02.807Z,45
2018-01-20T10:05:17.400Z,50
2018-01-20T10:06:17.133Z,50
2018-01-20T10:07:17.154Z,50
2018-01-20T10:08:02.507Z,50
2018-01-20T10:09:02.609Z,50
2018-01-20T10:10:17.465Z,35
2018-01-20T10:11:02.826Z,35
2018-01-20T10:12:02.832Z,40
2018-01-20T10:13:17.239Z,45
2018-01-20T10:14:02.700Z,50
2018-01-20T10:15:17.542Z,55
2018-01-20T10:16:02.975Z,60
2018-01-20T10:18:02.930Z,95
2018-01-20T10:19:02.945Z,105
2018-01-20T10:21:02.947Z,95
2018-01-20T10:22:02.814Z,90
2018-01-20T10:23:02.986Z,85
2018-01-20T10:24:03.002Z,85
2018-01-20T10:25:02.806Z,80
2018-01-20T10:26:03.052Z,75
2018-01-20T10:28:02.963Z,45
2018-01-20T10:29:03.103Z,45
2018-01-20T10:30:02.848Z,40
2018-01-20T10:31:17.789Z,45
2018-01-20T10:33:03.188Z,50
2018-01-20T10:34:02.929Z,50
2018-01-20T10:35:02.928Z,50
2018-01-20T10:36:17.886Z,50
2018-01-20T10:37:03.208Z,50
2018-01-20T10:38:03.333Z,50
2018-01-20T10:39:03.298Z,60
2018-01-20T10:40:17.938Z,60
2018-01-20T10:41:17.951Z,60
2018-01-20T10:42:17.694Z,60
2018-01-20T10:43:17.983Z,55
2018-01-20T10:44:03.142Z,55
2018-01-20T10:45:18.014Z,50
2018-01-20T10:46:03.401Z,50
2018-01-20T10:47:03.100Z,45
2018-01-20T10:48:17.558Z,40
2018-01-20T10:49:03.159Z,40
2018-01-20T10:50:03.183Z,40
2018-01-20T10:51:03.166Z,35
2018-01-20T10:52:17.853Z,35
2018-01-20T10:53:03.597Z,35
2018-01-20T10:54:03.470Z,40
2018-01-20T10:56:03.239Z,45
2018-01-20T10:57:03.523Z,45
2018-01-20T10:58:03.556Z,45
2018-01-20T10:59:03.416Z,45
2018-01-20T11:00:17.765Z,45
2018-01-20T11:01:03.066Z,45
2018-01-20T11:02:03.371Z,50
2018-01-20T11:03:03.110Z,50
2018-01-20T11:04:18.325Z,45
2018-01-20T11:05:03.615Z,40
2018-01-20T11:06:18.328Z,40
2018-01-20T11:07:03.410Z,35
2018-01-20T11:08:03.416Z,35
2018-01-20T11:09:03.729Z,35
2018-01-20T11:10:03.524Z,35
2018-01-20T11:11:18.414Z,40
2018-01-20T11:12:03.496Z,40
2018-01-20T11:13:18.191Z,40
2018-01-20T11:14:03.275Z,40
2018-01-20T11:15:03.520Z,40
2018-01-20T11:16:03.329Z,40
2018-01-20T11:17:03.583Z,50
2018-01-20T11:18:18.267Z,55
2018-01-20T11:19:03.859Z,60
2018-01-20T11:20:18.388Z,70
2018-01-20T11:21:03.908Z,70
2018-01-20T11:22:03.646Z,70
2018-01-20T11:23:03.699Z,75
2018-01-20T11:24:03.686Z,75
2018-01-20T11:25:03.961Z,75
2018-01-20T11:26:04.094Z,80
2018-01-20T11:27:03.987Z,85
2018-01-20T11:28:03.745Z,90
2018-01-20T11:29:04.033Z,90
2018-01-20T11:30:04.032Z,85
2018-01-20T11:31:04.048Z,85
2018-01-20T11:32:03.806Z,85
2018-01-20T11:33:18.502Z,85
2018-01-20T11:34:04.206Z,85
2018-01-20T11:35:18.807Z,85
2018-01-20T11:37:18.595Z,80
2018-01-20T11:38:03.676Z,80
2018-01-20T11:39:18.840Z,80
2018-01-20T11:40:03.703Z,80
2018-01-20T11:41:03.986Z,80
2018-01-20T11:42:04.270Z,75
2018-01-20T11:43:18.901Z,75
2018-01-20T11:44:04.052Z,75
2018-01-20T11:46:04.333Z,65
2018-01-20T11:47:04.295Z,60
2018-01-20T11:48:04.067Z,60
2018-01-20T11:49:04.373Z,55
2018-01-20T11:50:03.827Z,45
2018-01-20T11:51:04.373Z,40
2018-01-20T11:52:04.136Z,40
2018-01-20T11:53:04.502Z,40
2018-01-20T11:54:04.417Z,40
2018-01-20T11:55:04.177Z,45
2018-01-20T11:56:04.219Z,45
2018-01-20T11:57:19.123Z,50
2018-01-20T11:58:04.020Z,50
2018-01-20T11:59:04.257Z,50
2018-01-20T12:00:04.270Z,50
2018-01-20T12:01:04.395Z,45
2018-01-20T12:02:04.335Z,45
2018-01-20T12:03:04.285Z,40
2018-01-20T12:04:04.630Z,35
2018-01-20T12:05:33.938Z,35
2018-01-20T12:06:04.365Z,35
2018-01-20T12:07:19.065Z,35
2018-01-20T12:08:04.169Z,40
2018-01-20T12:09:04.029Z,40
2018-01-20T12:10:04.427Z,45
2018-01-20T12:11:04.230Z,45
2018-01-20T12:13:04.218Z,40
2018-01-20T12:14:04.498Z,35
2018-01-20T12:15:04.770Z,35
2018-01-20T12:16:19.325Z,35
2018-01-20T12:17:04.801Z,35
2018-01-20T12:18:04.567Z,40
2018-01-20T12:20:04.855Z,40
2018-01-20T12:21:19.516Z,40
2018-01-20T12:22:04.881Z,45
2018-01-20T12:23:19.583Z,45
2018-01-20T12:24:04.903Z,40
2018-01-20T12:25:04.680Z,40
2018-01-20T12:26:04.982Z,35
2018-01-20T12:27:04.728Z,35
2018-01-20T12:28:04.988Z,40
2018-01-20T12:29:04.981Z,40
2018-01-20T12:30:05.007Z,35
2018-01-20T12:32:05.023Z,35
2018-01-20T12:33:04.773Z,40
2018-01-20T12:34:04.881Z,35
2018-01-20T12:35:05.134Z,35
2018-01-20T12:36:05.085Z,30
2018-01-20T12:37:05.165Z,30
2018-01-20T12:38:05.119Z,25
2018-01-20T12:39:34.246Z,30
2018-01-20T12:40:04.928Z,35
2018-01-20T12:41:19.576Z,40
2018-01-20T12:42:04.968Z,40
2018-01-20T12:43:04.993Z,45
2018-01-20T12:44:05.222Z,50
2018-01-20T12:45:05.276Z,50
2018-01-20T12:46:05.101Z,50
2018-01-20T12:47:19.724Z,50
2018-01-20T12:48:19.976Z,50
2018-01-20T12:49:19.731Z,55
2018-01-20T12:51:20.133Z,60
2018-01-20T12:52:05.341Z,60
2018-01-20T12:53:05.361Z,65
2018-01-20T12:54:05.110Z,65
2018-01-20T12:55:20.187Z,65
2018-01-20T12:56:05.541Z,65
2018-01-20T12:57:05.191Z,60
2018-01-20T12:58:05.193Z,60
2018-01-20T12:59:05.208Z,60
2018-01-20T13:00:05.523Z,55
2018-01-20T13:01:20.152Z,55
2018-01-20T13:03:19.932Z,50
2018-01-20T13:04:20.250Z,50
2018-01-20T13:05:05.307Z,50
2018-01-20T13:06:05.324Z,45
2018-01-20T13:07:04.838Z,45
2018-01-20T13:08:05.614Z,45
2018-01-20T13:09:05.386Z,45
2018-01-20T13:10:20.317Z,40
2018-01-20T13:11:05.661Z,40
2018-01-20T13:12:05.740Z,40
2018-01-20T13:13:05.190Z,40
2018-01-20T13:14:05.713Z,35
2018-01-20T13:15:05.551Z,35
2018-01-20T13:16:05.750Z,30
2018-01-20T13:17:05.835Z,30
2018-01-20T13:18:20.298Z,25
2018-01-20T13:19:05.575Z,25
2018-01-20T13:20:20.264Z,25
2018-01-20T13:21:05.564Z,25
2018-01-20T13:22:05.849Z,25
2018-01-20T13:23:05.490Z,25
2018-01-20T13:24:35.231Z,20
2018-01-20T13:25:05.879Z,20
2018-01-20T13:26:05.882Z,20
2018-01-20T13:28:05.971Z,15
2018-01-20T13:29:05.725Z,15
2018-01-20T13:30:05.522Z,15
2018-01-20T13:31:05.758Z,15
2018-01-20T13:32:06.099Z,15
2018-01-20T13:33:35.386Z,15
2018-01-20T13:34:05.538Z,15
2018-01-20T13:35:06.041Z,15
2018-01-20T13:36:20.743Z,15
2018-01-20T13:37:05.849Z,15
2018-01-20T13:38:05.873Z,15
2018-01-20T13:40:06.149Z,20
2018-01-20T13:42:20.586Z,20
2018-01-20T13:43:06.184Z,25
2018-01-20T13:44:06.229Z,25
2018-01-20T13:45:20.971Z,30
2018-01-20T13:47:06.248Z,35
2018-01-20T13:48:06.257Z,40
2018-01-20T13:49:06.296Z,40
2018-01-20T13:50:20.705Z,35
2018-01-20T13:51:06.323Z,35
2018-01-20T13:52:06.324Z,30
2018-01-20T13:53:06.473Z,30
2018-01-20T13:54:06.336Z,25
2018-01-20T13:55:06.350Z,20
2018-01-20T13:56:06.383Z,20
2018-01-20T13:57:05.920Z,15
2018-01-20T13:58:21.211Z,15
2018-01-20T13:59:06.583Z,15
2018-01-20T14:00:06.489Z,15
2018-01-20T14:02:06.251Z,15
2018-01-20T14:03:21.046Z,20
2018-01-20T14:04:05.989Z,20
2018-01-20T14:05:20.956Z,20
2018-01-20T14:06:21.246Z,20
2018-01-20T14:07:06.566Z,15
2018-01-20T14:08:06.448Z,15
2018-01-20T14:09:06.379Z,15
2018-01-20T14:10:20.794Z,15
2018-01-20T14:11:06.417Z,15
2018-01-20T14:12:06.375Z,15
2018-01-20T14:13:06.703Z,15
2018-01-20T14:14:21.434Z,15
2018-01-20T14:15:21.119Z,15
2018-01-20T14:17:20.911Z,15
2018-01-20T14:18:06.734Z,15
2018-01-20T14:19:06.272Z,15
2018-01-20T14:20:06.514Z,15
2018-01-20T14:21:06.511Z,15
2018-01-20T14:22:06.536Z,10
2018-01-20T14:23:06.550Z,10
2018-01-20T14:24:06.951Z,10
2018-01-20T14:25:06.457Z,15
2018-01-20T14:26:06.721Z,15
2018-01-20T14:27:06.117Z,15
2018-01-20T14:28:06.893Z,15
2018-01-20T14:29:06.745Z,15
2018-01-20T14:30:21.590Z,15
2018-01-20T14:33:06.463Z,20
2018-01-20T14:34:06.754Z,20
2018-01-20T14:35:06.779Z,20
2018-01-20T14:36:21.708Z,20
2018-01-20T14:37:06.528Z,20
2018-01-20T14:38:07.086Z,20
2018-01-20T14:39:07.086Z,15
2018-01-20T14:40:07.111Z,15
2018-01-20T14:41:06.891Z,15
2018-01-20T14:42:07.120Z,10
2018-01-20T14:43:06.922Z,10
2018-01-20T14:44:06.941Z,10
2018-01-20T14:45:21.855Z,10
2018-01-20T14:46:07.197Z,10
2018-01-20T14:47:06.711Z,10
2018-01-20T14:48:06.782Z,5
2018-01-20T14:50:07.001Z,5
2018-01-20T14:51:21.963Z,10
2018-01-20T14:52:07.031Z,10
2018-01-20T14:53:21.999Z,10
2018-01-20T14:54:07.448Z,10
2018-01-20T14:55:07.431Z,10
2018-01-20T14:56:07.139Z,10
2018-01-20T14:58:07.243Z,10
2018-01-20T14:59:06.924Z,10
2018-01-20T15:00:06.664Z,10
2018-01-20T15:01:07.422Z,10
2018-01-20T15:02:06.947Z,5
2018-01-20T15:03:21.871Z,5
2018-01-20T15:04:07.574Z,5
2018-01-20T15:05:07.254Z,5
2018-01-20T15:06:07.507Z,5
2018-01-20T15:07:07.274Z,5
2018-01-20T15:08:07.287Z,5
2018-01-20T15:09:07.400Z,5
2018-01-20T15:10:07.437Z,5
2018-01-20T15:11:36.684Z,0
2018-01-20T15:12:07.340Z,0
2018-01-20T15:13:07.120Z,0
2018-01-20T15:14:07.373Z,0
2018-01-20T15:15:22.305Z,0
2018-01-20T15:16:07.401Z,0
2018-01-20T15:17:22.353Z,0
2018-01-20T15:18:07.721Z,0
2018-01-20T15:19:07.530Z,0
2018-01-20T15:20:07.451Z,0
2018-01-20T15:21:07.744Z,0
2018-01-20T15:22:07.250Z,0
2018-01-20T15:23:21.942Z,0
2018-01-20T15:24:07.875Z,0
2018-01-20T15:25:22.223Z,0
2018-01-20T15:26:07.571Z,0
2018-01-20T15:27:22.604Z,0
2018-01-20T15:28:22.638Z,0